Time;durP1;ratioP1;P1;durP2;ratioP2;P2;SDS_P1;SDS_P2;PMS_P1;PMS_P2;Temp;Humidity;BMP_temperature;BMP_pressure;BME280_temperature;BME280_humidity;BME280_pressure;Samples;Min_cycle;Max_cycle;Signal;HPM_P1;HPM_P2
2021/09/27 00:01:33;;;;;;;5.70;4.90;;;14.10;99.90;;;15.02;100.00;98313.28;5105186;28;21044;-85
2021/09/27 00:04:02;;;;;;;9.70;5.03;;;14.10;99.90;;;15.03;100.00;98317.50;5106500;28;20462;-85
2021/09/27 00:06:31;;;;;;;6.80;5.30;;;14.10;99.90;;;15.00;100.00;98321.38;5088178;28;20516;-85
2021/09/27 00:08:59;;;;;;;6.70;5.73;;;14.10;99.90;;;15.01;100.00;98322.19;5097745;28;20530;-85
2021/09/27 00:11:30;;;;;;;9.53;5.30;;;14.10;99.90;;;14.99;100.00;98321.59;5091255;28;20535;-85
2021/09/27 00:14:02;;;;;;;9.10;5.67;;;14.10;99.90;;;14.97;100.00;98327.06;5104255;27;20523;-85
2021/09/27 00:16:32;;;;;;;10.40;6.37;;;14.10;99.90;;;14.98;100.00;98317.34;5100712;28;20456;-84
2021/09/27 00:19:01;;;;;;;7.53;6.63;;;14.10;99.90;;;14.97;100.00;98321.78;5102803;28;20566;-84
2021/09/27 00:21:34;;;;;;;11.10;7.30;;;14.10;99.90;;;14.95;100.00;98317.75;5104156;28;20498;-85
2021/09/27 00:24:06;;;;;;;9.60;6.83;;;14.10;99.90;;;14.96;100.00;98308.84;5105015;28;21061;-84
2021/09/27 00:26:37;;;;;;;11.50;7.63;;;14.20;99.90;;;14.95;100.00;98318.56;5101876;28;20585;-85
2021/09/27 00:29:06;;;;;;;9.70;7.63;;;14.20;99.90;;;14.94;100.00;98309.03;5078204;28;20529;-86
2021/09/27 00:31:34;;;;;;;11.70;7.63;;;14.10;99.90;;;14.94;100.00;98308.22;5090302;28;20569;-85
2021/09/27 00:34:04;;;;;;;11.13;6.50;;;14.10;99.90;;;14.91;100.00;98309.47;5105189;28;21040;-85
2021/09/27 00:36:33;;;;;;;9.23;7.00;;;14.00;99.90;;;14.91;100.00;98306.03;5111120;28;20446;-85
2021/09/27 00:39:02;;;;;;;10.80;7.23;;;14.00;99.90;;;14.90;100.00;98310.47;5102043;28;20451;-85
2021/09/27 00:41:32;;;;;;;11.37;7.17;;;14.00;99.90;;;14.86;100.00;98308.44;5097839;28;20870;-85
2021/09/27 00:44:03;;;;;;;10.40;6.70;;;14.00;99.90;;;14.87;100.00;98305.63;5083490;28;20467;-84
2021/09/27 00:46:34;;;;;;;10.50;6.87;;;14.00;99.90;;;14.88;100.00;98299.34;5107441;28;20462;-85
2021/09/27 00:49:04;;;;;;;11.07;6.77;;;13.90;99.90;;;14.89;100.00;98289.63;5076421;28;20512;-85
2021/09/27 00:51:43;;;;;;;7.93;6.50;;;14.00;99.90;;;14.88;100.00;98299.34;5099079;28;20490;-85
2021/09/27 00:54:20;;;;;;;8.87;6.37;;;14.00;99.90;;;14.88;100.00;98288.00;5098299;28;20503;-85
2021/09/27 00:56:55;;;;;;;14.33;6.83;;;14.00;99.90;;;14.88;100.00;98290.63;5090944;28;20542;-85
2021/09/27 00:59:27;;;;;;;15.93;8.00;;;14.00;99.90;;;14.86;100.00;98282.94;5099747;28;20963;-85
2021/09/27 01:01:56;;;;;;;9.87;6.90;;;14.00;99.90;;;14.86;100.00;98277.66;5087509;28;20579;-85
2021/09/27 01:04:25;;;;;;;14.50;6.50;;;14.00;99.90;;;14.86;100.00;98287.38;5112048;27;20454;-85
2021/09/27 01:07:15;;;;;;;8.10;6.70;;;13.90;99.90;;;14.84;100.00;98281.53;5103120;28;20462;-85
2021/09/27 01:10:30;;;;;;;9.00;6.53;;;13.90;99.90;;;14.84;100.00;98279.72;5087893;28;20533;-85
2021/09/27 01:13:43;;;;;;;13.60;7.40;;;14.00;99.90;;;14.81;100.00;98280.13;5100036;28;20470;-85
2021/09/27 01:16:26;;;;;;;10.60;7.57;;;13.90;99.90;;;14.81;100.00;98281.94;5097083;28;20557;-85
2021/09/27 01:19:22;;;;;;;10.30;6.90;;;13.90;99.90;;;14.82;100.00;98281.72;5095581;28;20481;-85
2021/09/27 01:22:05;;;;;;;11.23;6.47;;;13.90;99.90;;;14.82;100.00;98288.84;5104485;28;20498;-85
2021/09/27 01:25:14;;;;;;;15.10;7.30;;;13.90;99.90;;;14.83;100.00;98287.81;5097476;28;21140;-85
2021/09/27 01:28:14;;;;;;;13.20;7.63;;;13.90;99.90;;;14.83;100.00;98286.00;5087981;28;20459;-85
2021/09/27 01:31:27;;;;;;;15.80;8.47;;;13.90;99.90;;;14.84;100.00;98289.44;5099250;28;20455;-86
2021/09/27 01:34:06;;;;;;;11.57;7.17;;;13.90;99.90;;;14.79;100.00;98283.97;5103390;28;20462;-85
2021/09/27 01:36:50;;;;;;;15.83;7.40;;;13.90;99.90;;;14.72;100.00;98286.63;5088897;28;20543;-85
2021/09/27 01:39:31;;;;;;;9.93;6.70;;;13.80;99.90;;;14.72;100.00;98280.53;5095922;28;20466;-85
2021/09/27 01:42:11;;;;;;;12.93;7.70;;;13.80;99.90;;;14.60;100.00;98278.56;5077554;28;20506;-85
2021/09/27 01:44:51;;;;;;;14.83;6.93;;;13.60;99.90;;;14.60;100.00;98283.03;5101883;28;20446;-85
2021/09/27 01:47:29;;;;;;;12.37;7.93;;;13.60;99.90;;;14.58;100.00;98280.59;5095578;28;20486;-85
2021/09/27 01:50:10;;;;;;;24.33;7.00;;;13.70;99.90;;;14.56;100.00;98290.53;5096675;28;21056;-85
2021/09/27 01:52:45;;;;;;;12.23;7.73;;;13.70;99.90;;;14.57;100.00;98291.34;5096012;28;20470;-85
2021/09/27 01:55:23;;;;;;;9.87;6.63;;;13.70;99.90;;;14.56;100.00;98287.91;5102604;28;20499;-86
2021/09/27 01:58:03;;;;;;;15.83;8.10;;;13.70;99.90;;;14.57;100.00;98289.53;5106373;28;20986;-84
2021/09/27 02:00:42;;;;;;;13.43;7.80;;;13.70;99.90;;;14.54;100.00;98282.00;5083223;28;20443;-85
2021/09/27 02:03:24;;;;;;;17.20;7.63;;;13.70;99.90;;;14.55;100.00;98286.28;5100331;28;20487;-85
2021/09/27 02:06:05;;;;;;;12.40;6.90;;;13.70;99.90;;;14.55;100.00;98288.91;5105101;28;20450;-85
2021/09/27 02:08:47;;;;;;;11.00;7.10;;;13.80;99.90;;;14.55;100.00;98286.28;5102169;28;20874;-85
2021/09/27 02:11:23;;;;;;;15.83;8.27;;;13.70;99.90;;;14.54;100.00;98276.75;5101217;28;20462;-84
2021/09/27 02:14:13;;;;;;;12.80;6.80;;;13.80;99.90;;;14.52;100.00;98276.16;5093044;28;20475;-85
2021/09/27 02:16:52;;;;;;;13.73;6.90;;;13.70;99.90;;;14.52;100.00;98276.16;5097541;28;21153;-85
2021/09/27 02:19:34;;;;;;;19.13;7.70;;;13.70;99.90;;;14.54;100.00;98268.06;5066931;28;20499;-84
2021/09/27 02:22:15;;;;;;;25.10;7.70;;;13.70;99.90;;;14.55;100.00;98264.41;5101027;28;20486;-85
2021/09/27 02:24:55;;;;;;;14.60;7.50;;;13.80;99.90;;;14.54;100.00;98260.97;5102036;28;20511;-85
2021/09/27 02:27:24;;;;;;;11.80;7.80;;;13.70;99.90;;;14.58;100.00;98264.81;5097196;28;20459;-84
2021/09/27 02:29:53;;;;;;;16.90;8.00;;;13.70;99.90;;;14.61;100.00;98264.38;5097505;28;20545;-84
2021/09/27 02:32:32;;;;;;;14.83;7.77;;;13.70;99.90;;;14.61;100.00;98253.84;5098503;28;20454;-85
2021/09/27 02:35:09;;;;;;;15.73;7.67;;;13.70;99.90;;;14.64;100.00;98257.09;5102957;28;20938;-85
2021/09/27 02:37:48;;;;;;;11.80;7.90;;;13.70;99.90;;;14.57;100.00;98252.69;5107361;28;20857;-85
2021/09/27 02:40:25;;;;;;;11.10;7.93;;;13.70;99.90;;;14.57;100.00;98257.94;5094929;28;20447;-85
2021/09/27 02:42:57;;;;;;;12.00;7.97;;;13.70;99.90;;;14.59;100.00;98261.16;5098222;28;21039;-85
2021/09/27 02:45:29;;;;;;;12.90;8.27;;;13.70;99.90;;;14.61;100.00;98253.06;5101866;28;20536;-85
2021/09/27 02:48:12;;;;;;;14.03;8.10;;;13.80;99.90;;;14.64;100.00;98246.56;5100629;28;20461;-85
2021/09/27 02:50:45;;;;;;;16.80;8.70;;;13.70;99.90;;;14.65;100.00;98242.94;5094331;28;20841;-84
2021/09/27 02:53:20;;;;;;;15.03;7.07;;;13.70;99.90;;;14.66;100.00;98236.63;5103047;28;20458;-87
2021/09/27 02:56:14;;;;;;;14.93;8.93;;;13.80;99.90;;;14.68;100.00;98239.88;5106794;28;20706;-87
2021/09/27 02:59:02;;;;;;;13.40;8.80;;;13.80;99.90;;;14.68;100.00;98238.06;5072426;28;20492;-88
2021/09/27 03:01:45;;;;;;;12.43;7.50;;;13.80;99.90;;;14.70;100.00;98237.84;5083417;28;20528;-86
2021/09/27 03:04:24;;;;;;;13.13;7.30;;;13.80;99.90;;;14.68;100.00;98237.25;5079612;28;20483;-86
2021/09/27 03:07:12;;;;;;;10.13;7.50;;;13.80;99.90;;;14.69;100.00;98236.22;5083926;28;20463;-87
2021/09/27 03:10:00;;;;;;;11.50;7.87;;;13.90;99.90;;;14.70;100.00;98235.22;5081690;28;20556;-86
2021/09/27 03:12:42;;;;;;;13.57;8.37;;;13.80;99.90;;;14.73;100.00;98238.22;5074720;28;20467;-87
2021/09/27 03:15:49;;;;;;;15.53;7.90;;;13.90;99.90;;;14.73;100.00;98227.69;5079709;28;20840;-86
2021/09/27 03:18:34;;;;;;;12.63;8.13;;;13.90;99.90;;;14.70;100.00;98214.97;5077826;28;20487;-86
2021/09/27 03:21:24;;;;;;;16.23;8.23;;;13.90;99.90;;;14.71;100.00;98221.03;5077242;28;21049;-88
2021/09/27 03:24:13;;;;;;;16.73;7.40;;;13.90;99.90;;;14.75;100.00;98225.66;5078693;28;20597;-88
2021/09/27 03:26:57;;;;;;;19.33;8.43;;;13.90;99.90;;;14.78;100.00;98221.81;5076741;28;20456;-87
2021/09/27 03:29:40;;;;;;;16.43;8.30;;;13.90;99.90;;;14.79;100.00;98228.69;5082782;28;20451;-86
2021/09/27 03:32:23;;;;;;;14.87;8.80;;;13.90;99.90;;;14.78;100.00;98227.09;5076375;28;20554;-87
2021/09/27 03:35:05;;;;;;;16.93;8.00;;;14.00;99.90;;;14.80;100.00;98225.84;5081228;28;20779;-86
2021/09/27 03:37:51;;;;;;;21.40;8.03;;;14.00;99.90;;;14.81;100.00;98219.56;5083373;28;20463;-86
2021/09/27 03:40:38;;;;;;;11.70;8.50;;;14.00;99.90;;;14.84;100.00;98220.97;5078850;28;20544;-87
2021/09/27 03:43:24;;;;;;;12.83;8.00;;;14.00;99.90;;;14.88;100.00;98222.19;5089028;28;20555;-86
2021/09/27 03:46:07;;;;;;;21.53;9.63;;;14.00;99.90;;;14.89;100.00;98219.31;5074044;28;20666;-86
2021/09/27 03:48:46;;;;;;;17.70;9.50;;;14.10;99.90;;;14.90;100.00;98231.47;5081848;28;20459;-87
2021/09/27 03:51:22;;;;;;;20.20;10.27;;;14.00;99.90;;;14.92;100.00;98236.53;5091031;28;20485;-87
2021/09/27 03:53:58;;;;;;;19.40;10.57;;;14.00;99.90;;;14.95;100.00;98247.47;5078129;28;20475;-86
2021/09/27 03:56:33;;;;;;;21.63;10.50;;;14.10;99.90;;;14.95;100.00;98244.84;5087755;28;20455;-85
2021/09/27 03:59:14;;;;;;;20.40;10.37;;;14.10;99.90;;;14.95;100.00;98241.38;5105559;28;20470;-86
2021/09/27 04:01:56;;;;;;;20.83;10.93;;;14.20;99.90;;;14.95;100.00;98249.28;5105630;28;20974;-87
2021/09/27 04:04:49;;;;;;;20.83;11.10;;;14.30;99.90;;;14.94;100.00;98248.47;5102374;28;20519;-86
2021/09/27 04:07:32;;;;;;;25.20;10.93;;;14.30;99.90;;;14.94;100.00;98247.66;5079668;28;20466;-87
2021/09/27 04:10:19;;;;;;;21.97;10.77;;;14.30;99.90;;;14.92;100.00;98254.97;5101169;28;20539;-86
2021/09/27 04:13:09;;;;;;;21.67;11.50;;;14.20;99.90;;;14.91;100.00;98253.34;5102086;28;20458;-87
2021/09/27 04:16:03;;;;;;;20.20;10.97;;;14.10;99.90;;;14.93;100.00;98251.31;5092461;28;20833;-87
2021/09/27 04:18:53;;;;;;;21.33;11.90;;;14.10;99.90;;;14.95;100.00;98251.91;5103435;28;20482;-87
2021/09/27 04:21:36;;;;;;;28.53;11.70;;;14.10;99.90;;;14.94;100.00;98252.94;5096525;28;20470;-87
2021/09/27 04:24:28;;;;;;;20.53;11.33;;;14.20;99.90;;;14.93;100.00;98252.13;5089521;28;21022;-86
2021/09/27 04:27:20;;;;;;;24.50;11.30;;;14.20;99.90;;;14.94;100.00;98242.41;5092145;28;20835;-87
2021/09/27 04:30:25;;;;;;;23.17;11.53;;;14.10;99.90;;;14.95;100.00;98246.66;5107999;28;20801;-87
2021/09/27 04:33:26;;;;;;;24.07;11.77;;;14.10;99.90;;;14.96;100.00;98246.44;5090207;28;20501;-86
2021/09/27 04:36:05;;;;;;;33.93;12.77;;;14.20;99.90;;;14.94;100.00;98245.03;5081120;28;20498;-88
2021/09/27 04:38:38;;;;;;;21.77;11.57;;;14.30;99.90;;;14.93;100.00;98248.66;5103482;28;20524;-87
2021/09/27 04:41:37;;;;;;;21.60;12.50;;;14.30;99.90;;;14.92;100.00;98254.97;5086225;28;20864;-86
2021/09/27 04:44:24;;;;;;;22.73;13.17;;;14.20;99.90;;;14.93;100.00;98251.31;5099106;28;20518;-87
2021/09/27 04:47:08;;;;;;;26.33;13.57;;;14.20;99.90;;;14.93;100.00;98257.38;5087065;28;20466;-86
2021/09/27 04:50:06;;;;;;;21.30;11.67;;;14.30;99.90;;;14.91;100.00;98250.72;5100088;28;20462;-87
2021/09/27 04:52:52;;;;;;;25.17;12.57;;;14.30;99.90;;;14.91;100.00;98253.34;5105217;28;20451;-87
2021/09/27 04:55:46;;;;;;;26.10;12.23;;;14.30;99.90;;;14.90;100.00;98255.19;5105843;28;20515;-87
2021/09/27 04:58:56;;;;;;;28.37;13.03;;;14.30;99.90;;;14.92;100.00;98254.97;5083387;28;20535;-87
2021/09/27 05:01:56;;;;;;;28.07;12.03;;;14.20;99.90;;;14.89;100.00;98256.19;5101741;28;20455;-86
2021/09/27 05:04:44;;;;;;;23.07;11.53;;;14.20;99.90;;;14.90;100.00;98251.72;5098441;28;20853;-87
2021/09/27 05:07:59;;;;;;;21.97;11.70;;;14.30;99.90;;;14.90;100.00;98251.72;5103691;28;20512;-87
2021/09/27 05:11:04;;;;;;;23.03;11.80;;;14.30;99.90;;;14.92;100.00;98249.72;5098742;28;20458;-86
2021/09/27 05:14:04;;;;;;;27.33;13.17;;;14.30;99.90;;;14.93;100.00;98256.56;5095231;28;21478;-80
2021/09/27 05:16:51;;;;;;;21.53;9.97;;;14.20;99.90;;;14.92;100.00;98250.53;5099736;28;20453;-83
2021/09/27 05:20:04;;;;;;;26.53;11.77;;;14.20;99.90;;;14.91;100.00;98248.91;5098621;28;20490;-81
2021/09/27 05:22:58;;;;;;;22.07;11.03;;;14.30;99.90;;;14.95;100.00;98254.56;5106386;28;20458;-81
2021/09/27 05:26:11;;;;;;;17.63;10.07;;;14.20;99.90;;;14.95;100.00;98251.91;5105892;28;20443;-81
2021/09/27 05:29:00;;;;;;;22.57;10.73;;;14.30;99.90;;;14.97;100.00;98247.25;5100454;28;20511;-81
2021/09/27 05:32:28;;;;;;;21.67;10.87;;;14.30;99.90;;;14.97;100.00;98241.97;5097649;28;20501;-81
2021/09/27 05:35:15;;;;;;;26.03;12.57;;;14.20;99.90;;;14.99;100.00;98242.59;5009679;28;20503;-81
2021/09/27 05:38:00;;;;;;;47.43;13.20;;;14.30;99.90;;;15.00;100.00;98244.19;5014402;28;20446;-81
2021/09/27 05:40:45;;;;;;;37.03;12.83;;;14.20;99.90;;;15.01;100.00;98240.53;5079429;28;20926;-81
2021/09/27 05:43:43;;;;;;;25.23;11.70;;;14.30;99.90;;;15.01;100.00;98244.00;5100382;28;20514;-79
2021/09/27 05:47:00;;;;;;;26.20;13.37;;;14.30;99.90;;;15.02;100.00;98240.34;5077950;28;20473;-80
2021/09/27 05:49:45;;;;;;;20.83;10.60;;;14.20;99.90;;;15.02;100.00;98240.34;5080220;28;20482;-80
2021/09/27 05:52:26;;;;;;;27.77;12.40;;;14.30;99.90;;;15.04;100.00;98243.56;5102354;28;20454;-81
2021/09/27 05:55:05;;;;;;;26.27;12.50;;;14.30;99.90;;;15.05;100.00;98236.47;5095775;28;20446;-80
2021/09/27 05:57:49;;;;;;;30.13;12.70;;;14.30;99.90;;;15.08;100.00;98243.94;5101886;28;20682;-81
2021/09/27 06:00:29;;;;;;;25.57;11.73;;;14.30;99.90;;;15.10;100.00;98241.91;5102655;28;20843;-82
2021/09/27 06:03:32;;;;;;;27.87;11.43;;;14.30;99.90;;;15.11;100.00;98241.72;5109027;28;20446;-82
2021/09/27 06:06:21;;;;;;;21.60;11.20;;;14.30;99.90;;;15.10;100.00;98237.44;5098728;28;20457;-81
2021/09/27 06:09:04;;;;;;;37.03;13.80;;;14.30;99.90;;;15.15;100.00;98239.47;5102639;28;20566;-81
2021/09/27 06:11:46;;;;;;;32.90;12.77;;;14.30;99.90;;;15.18;100.00;98246.13;5107546;28;20451;-81
2021/09/27 06:14:18;;;;;;;34.00;12.63;;;14.40;99.90;;;15.20;100.00;98239.66;5107702;28;20466;-81
2021/09/27 06:17:09;;;;;;;29.27;12.23;;;14.40;99.90;;;15.22;100.00;98237.59;5108850;28;20474;-82
2021/09/27 06:19:48;;;;;;;32.90;12.67;;;14.40;99.90;;;15.24;100.00;98232.91;5106816;28;20945;-81
2021/09/27 06:22:58;;;;;;;32.13;14.80;;;14.50;99.90;;;15.28;100.00;98243.84;5098898;28;20454;-81
2021/09/27 06:25:36;;;;;;;33.83;13.63;;;14.50;99.90;;;15.29;100.00;98241.00;5099030;28;20494;-81
2021/09/27 06:28:21;;;;;;;36.07;13.20;;;14.50;99.90;;;15.31;100.00;98238.94;5101519;28;20489;-80
2021/09/27 06:31:00;;;;;;;32.00;13.17;;;14.50;99.90;;;15.34;100.00;98237.75;5103847;28;20514;-81
2021/09/27 06:33:37;;;;;;;39.00;14.20;;;14.50;99.90;;;15.35;100.00;98239.34;5098175;28;20462;-80
2021/09/27 06:36:11;;;;;;;29.47;13.23;;;14.50;99.90;;;15.38;100.00;98239.72;5104438;28;20455;-81
2021/09/27 06:38:40;;;;;;;29.60;12.47;;;14.70;99.90;;;15.38;100.00;98238.91;5104527;28;20453;-81
2021/09/27 06:41:18;;;;;;;30.03;12.23;;;14.80;99.90;;;15.40;100.00;98242.16;5104312;28;20454;-81
2021/09/27 06:43:49;;;;;;;92.50;41.33;;;14.80;99.90;;;15.40;100.00;98247.41;5098917;28;20529;-77
2021/09/27 06:46:18;;;;;;;32.27;14.30;;;14.80;99.90;;;15.40;100.00;98247.41;5098431;28;20836;-81
2021/09/27 06:48:47;;;;;;;27.87;13.50;;;14.80;99.90;;;15.41;100.00;98255.09;5106340;28;20935;-81
2021/09/27 06:51:16;;;;;;;25.40;12.47;;;14.80;99.90;;;15.44;100.00;98254.69;5107937;28;20442;-81
2021/09/27 06:53:45;;;;;;;31.03;13.40;;;14.80;99.90;;;15.47;100.00;98253.47;5108614;28;20443;-81
2021/09/27 06:56:14;;;;;;;24.73;11.87;;;14.80;99.90;;;15.47;100.00;98254.28;5101354;28;20443;-81
2021/09/27 06:58:43;;;;;;;28.93;11.90;;;14.70;99.90;;;15.48;100.00;98255.09;5108214;28;20493;-80
2021/09/27 07:01:13;;;;;;;21.70;11.07;;;14.70;99.90;;;15.50;100.00;98253.06;5100398;28;21007;-81
2021/09/27 07:03:42;;;;;;;26.90;12.13;;;14.70;99.90;;;15.51;100.00;98250.22;5095789;28;20872;-81
2021/09/27 07:06:12;;;;;;;21.23;10.33;;;14.80;99.90;;;15.53;100.00;98261.34;5108240;28;20966;-81
2021/09/27 07:08:40;;;;;;;21.57;11.30;;;14.80;99.90;;;15.55;100.00;98261.13;5099207;28;20466;-81
2021/09/27 07:11:09;;;;;;;32.47;12.50;;;14.80;99.90;;;15.53;100.00;98264.00;5099692;28;21029;-81
2021/09/27 07:13:38;;;;;;;24.80;11.60;;;14.80;99.90;;;15.55;100.00;98264.56;5097224;28;20761;-82
2021/09/27 07:16:07;;;;;;;23.83;11.53;;;14.80;99.90;;;15.58;100.00;98263.34;5095441;28;20522;-81
2021/09/27 07:18:38;;;;;;;18.83;9.50;;;14.80;99.90;;;15.62;100.00;98256.59;5093915;28;20486;-81
2021/09/27 07:21:08;;;;;;;19.10;10.17;;;15.00;99.90;;;15.67;100.00;98255.97;5099209;28;20516;-81
2021/09/27 07:23:39;;;;;;;19.17;10.10;;;15.00;99.90;;;15.68;100.00;98258.41;5100937;28;20946;-81
2021/09/27 07:26:09;;;;;;;20.77;10.57;;;15.10;99.90;;;15.67;100.00;98269.97;5098122;28;20828;-80
2021/09/27 07:28:39;;;;;;;16.47;10.00;;;15.20;99.90;;;15.67;100.00;98263.88;5103826;28;20462;-81
2021/09/27 07:31:09;;;;;;;20.23;10.00;;;15.10;99.90;;;15.68;100.00;98260.25;5099499;28;20451;-80
2021/09/27 07:33:40;;;;;;;24.23;10.90;;;15.10;99.90;;;15.70;100.00;98263.47;5104127;28;20462;-81
2021/09/27 07:36:09;;;;;;;17.33;9.60;;;15.10;99.90;;;15.71;100.00;98257.16;5101620;28;20463;-81
2021/09/27 07:38:37;;;;;;;23.00;11.10;;;15.10;99.90;;;15.73;100.00;98249.84;5098796;28;20523;-81
2021/09/27 07:41:07;;;;;;;23.93;11.17;;;15.10;99.90;;;15.75;100.00;98258.38;5100672;28;20473;-81
2021/09/27 07:43:36;;;;;;;24.90;10.57;;;15.00;99.90;;;15.75;100.00;98255.72;5095131;28;20466;-82
2021/09/27 07:46:05;;;;;;;18.97;9.73;;;15.10;99.90;;;15.78;100.00;98255.28;5101428;28;20504;-81
2021/09/27 07:48:33;;;;;;;20.47;10.47;;;15.00;99.90;;;15.81;100.00;98253.03;5091496;28;20470;-82
2021/09/27 07:51:03;;;;;;;18.33;10.37;;;15.10;99.90;;;15.84;100.00;98243.88;5110676;28;20460;-82
2021/09/27 07:53:32;;;;;;;19.00;10.70;;;15.10;99.90;;;15.90;100.00;98248.28;5109107;28;20474;-81
2021/09/27 07:56:01;;;;;;;22.20;10.40;;;15.20;99.90;;;15.93;100.00;98239.97;5097722;27;20956;-81
2021/09/27 07:58:30;;;;;;;16.80;10.03;;;15.20;99.90;;;15.94;100.00;98244.19;5109100;28;20470;-81
2021/09/27 08:00:58;;;;;;;19.20;9.20;;;15.20;99.90;;;15.99;100.00;98236.47;5100752;28;20463;-82
2021/09/27 08:03:27;;;;;;;16.53;9.20;;;15.20;99.90;;;16.02;100.00;98243.94;5100785;28;20890;-81
2021/09/27 08:05:56;;;;;;;17.30;9.53;;;15.30;99.90;;;16.05;100.00;98238.22;5099247;28;20495;-81
2021/09/27 08:08:26;;;;;;;19.00;9.43;;;15.40;99.90;;;16.06;100.00;98237.22;5098085;28;20462;-82
2021/09/27 08:10:55;;;;;;;21.57;9.23;;;15.40;99.90;;;16.08;100.00;98237.78;5104393;28;20469;-82
2021/09/27 08:13:24;;;;;;;20.70;9.30;;;15.40;99.90;;;16.10;100.00;98241.81;5108227;27;20527;-81
2021/09/27 08:15:56;;;;;;;16.93;9.63;;;15.40;99.90;;;16.11;100.00;98237.34;5095840;28;20474;-82
2021/09/27 08:18:25;;;;;;;22.80;10.60;;;15.40;99.90;;;16.09;100.00;98237.56;5099914;28;20483;-82
2021/09/27 08:20:58;;;;;;;22.93;12.20;;;15.30;99.90;;;16.10;100.00;98236.53;5099725;28;20455;-82
2021/09/27 08:23:28;;;;;;;24.57;11.47;;;15.30;99.90;;;16.05;100.00;98238.22;5096103;28;20983;-82
2021/09/27 08:25:58;;;;;;;25.13;12.40;;;15.20;99.90;;;16.06;100.00;98234.56;5095853;28;20547;-81
2021/09/27 08:28:30;;;;;;;27.23;12.93;;;15.30;99.90;;;16.09;100.00;98239.41;5105734;28;20838;-83
2021/09/27 08:31:02;;;;;;;29.90;12.37;;;15.30;99.90;;;16.11;100.00;98245.25;5095463;28;20458;-82
2021/09/27 08:33:33;;;;;;;29.20;13.67;;;15.30;99.90;;;16.14;100.00;98244.03;5107393;28;20450;-82
2021/09/27 08:36:07;;;;;;;22.80;12.60;;;15.40;99.90;;;16.17;100.00;98247.06;5110593;28;20482;-82
2021/09/27 08:38:38;;;;;;;25.93;12.23;;;15.50;99.90;;;16.21;100.00;98242.94;5109854;28;20515;-82
2021/09/27 08:41:20;;;;;;;22.43;12.83;;;15.50;99.90;;;16.22;100.00;98238.47;5108843;28;20480;-82
2021/09/27 08:44:26;;;;;;;28.70;12.63;;;15.50;99.90;;;16.24;100.00;98239.06;5109526;28;20488;-82
2021/09/27 08:47:02;;;;;;;20.50;11.63;;;15.60;99.90;;;16.20;100.00;98238.69;5109098;27;20516;-82
2021/09/27 08:49:42;;;;;;;22.07;11.60;;;15.50;99.90;;;16.24;100.00;98245.16;5104364;28;20443;-81
2021/09/27 08:52:17;;;;;;;20.50;10.50;;;15.50;99.90;;;16.19;100.00;98244.19;5105603;28;20831;-81
2021/09/27 08:54:51;;;;;;;19.80;11.60;;;15.40;99.90;;;16.21;100.00;98240.28;5103317;28;20438;-82
2021/09/27 08:57:44;;;;;;;18.93;10.10;;;15.40;99.90;;;16.27;100.00;98243.91;5107103;28;20836;-82
2021/09/27 09:00:40;;;;;;;23.13;11.90;;;15.50;99.90;;;16.32;100.00;98242.22;5095018;28;20457;-81
2021/09/27 09:03:21;;;;;;;19.83;11.97;;;15.50;99.90;;;16.36;100.00;98246.03;5103638;28;20453;-82
2021/09/27 09:05:56;;;;;;;17.43;11.50;;;15.60;99.90;;;16.41;100.00;98245.38;5108848;28;20486;-82
2021/09/27 09:08:34;;;;;;;20.77;11.23;;;15.70;99.90;;;16.42;100.00;98242.50;5094199;28;20438;-82
2021/09/27 09:11:19;;;;;;;19.50;10.47;;;15.70;99.90;;;16.46;100.00;98238.41;5103760;28;20450;-82
2021/09/27 09:13:53;;;;;;;18.23;9.90;;;15.80;99.90;;;16.51;100.00;98241.22;5096050;28;20466;-82
2021/09/27 09:16:29;;;;;;;15.70;10.07;;;15.80;99.90;;;16.57;100.00;98240.34;5103486;28;20522;-81
2021/09/27 09:19:02;;;;;;;13.17;8.63;;;15.80;99.90;;;16.64;100.00;98239.47;5099272;28;20482;-81
2021/09/27 09:21:41;;;;;;;12.63;8.00;;;16.00;99.90;;;16.71;100.00;98234.91;5095772;28;20454;-81
2021/09/27 09:24:17;;;;;;;14.57;8.10;;;16.10;99.90;;;16.76;100.00;98227.97;5104055;28;20446;-81
2021/09/27 09:26:52;;;;;;;12.83;7.00;;;16.10;99.90;;;16.82;100.00;98229.72;5103383;28;20494;-81
2021/09/27 09:29:25;;;;;;;8.17;6.13;;;16.10;99.90;;;16.87;100.00;98227.19;5096841;28;20799;-80
2021/09/27 09:31:58;;;;;;;10.00;6.50;;;16.20;99.90;;;16.96;100.00;98223.25;5093882;28;21042;-81
2021/09/27 09:34:34;;;;;;;9.17;5.70;;;16.40;99.90;;;17.02;100.00;98224.97;5100291;28;20459;-81
2021/09/27 09:37:09;;;;;;;14.13;9.20;;;16.40;99.90;;;17.04;100.00;98232.69;5103356;28;20462;-81
2021/09/27 09:39:40;;;;;;;12.97;7.43;;;16.40;99.90;;;17.08;100.00;98233.84;5093492;28;20469;-80
2021/09/27 09:42:33;;;;;;;11.27;7.30;;;16.40;99.90;;;17.10;100.00;98229.16;5106449;28;20778;-81
2021/09/27 09:45:17;;;;;;;9.30;7.20;;;16.40;99.90;;;17.14;100.00;98222.38;5094336;28;20504;-81
2021/09/27 09:47:46;;;;;;;11.60;6.77;;;16.50;99.90;;;17.17;100.00;98229.88;5091117;28;20470;-80
2021/09/27 09:50:29;;;;;;;10.20;6.50;;;16.50;99.90;;;17.15;100.00;98220.56;5093843;28;20463;-80
2021/09/27 09:52:59;;;;;;;8.40;6.50;;;16.40;99.90;;;17.20;100.00;98229.41;5091398;27;20840;-80
2021/09/27 09:55:34;;;;;;;15.00;7.50;;;16.50;99.90;;;17.26;100.00;98223.22;5101377;28;20458;-81
2021/09/27 09:58:12;;;;;;;9.93;6.90;;;16.50;99.90;;;17.34;100.00;98222.91;5100457;28;20486;-81
2021/09/27 10:00:58;;;;;;;13.97;7.30;;;16.70;99.90;;;17.42;100.00;98221.78;5091173;28;20555;-81
2021/09/27 10:03:33;;;;;;;10.30;7.40;;;16.70;99.90;;;17.50;100.00;98226.72;5095154;28;20471;-81
2021/09/27 10:06:06;;;;;;;13.47;7.50;;;16.90;99.90;;;17.55;100.00;98230.31;5097275;28;21057;-81
2021/09/27 10:08:38;;;;;;;11.93;8.47;;;16.90;99.90;;;17.52;100.00;98225.50;5104616;28;20555;-82
2021/09/27 10:11:13;;;;;;;12.93;8.37;;;16.90;99.90;;;17.51;100.00;98228.34;5100737;28;20462;-81
2021/09/27 10:13:52;;;;;;;14.23;7.40;;;16.80;99.90;;;17.61;100.00;98228.63;5094624;28;20470;-81
2021/09/27 10:16:45;;;;;;;11.00;9.00;;;16.90;99.90;;;17.70;100.00;98234.41;5098324;28;20874;-81
2021/09/27 10:19:23;;;;;;;13.40;7.83;;;17.00;99.90;;;17.71;100.00;98220.94;5094846;28;20951;-81
2021/09/27 10:21:58;;;;;;;11.10;7.17;;;17.10;99.90;;;17.73;100.00;98229.47;5103848;28;20519;-81
2021/09/27 10:24:37;;;;;;;11.50;8.33;;;17.10;99.90;;;17.76;100.00;98222.91;5097237;28;20519;-81
2021/09/27 10:27:18;;;;;;;12.23;7.60;;;17.10;99.90;;;17.78;100.00;98226.94;5098006;28;20638;-82
2021/09/27 10:29:51;;;;;;;12.23;7.47;;;17.10;99.90;;;17.83;100.00;98215.69;5095651;28;20448;-82
2021/09/27 10:32:34;;;;;;;11.27;8.13;;;17.20;99.90;;;17.85;100.00;98217.03;5097742;28;20462;-81
2021/09/27 10:35:16;;;;;;;9.60;7.20;;;17.20;99.90;;;17.87;100.00;98219.47;5108326;28;20507;-82
2021/09/27 10:37:46;;;;;;;9.33;6.87;;;17.30;99.90;;;17.96;100.00;98215.44;5101057;28;20447;-82
2021/09/27 10:40:20;;;;;;;12.53;8.13;;;17.30;99.90;;;18.00;100.00;98211.31;5102484;28;20933;-82
2021/09/27 10:42:52;;;;;;;10.67;7.40;;;17.40;99.90;;;17.98;100.00;98200.13;5093372;28;20482;-82
2021/09/27 10:45:26;;;;;;;9.00;6.90;;;17.30;99.90;;;18.01;100.00;98187.25;5093592;28;20447;-81
2021/09/27 10:47:57;;;;;;;9.20;6.57;;;17.40;99.90;;;18.12;100.00;98193.56;5108047;28;20489;-81
2021/09/27 10:50:33;;;;;;;10.00;6.50;;;17.50;99.90;;;18.15;100.00;98190.50;5106358;28;20499;-81
2021/09/27 10:53:21;;;;;;;14.97;7.70;;;17.50;99.90;;;18.23;100.00;98191.94;5112317;28;20493;-82
2021/09/27 10:56:05;;;;;;;7.93;6.20;;;17.60;99.90;;;18.27;100.00;98178.03;5094793;28;21047;-81